Middlesex Center, Vermont
Current Conditions -  °F | °C
As of 7:13 AM on Sunday 25 Jan 2015 (Local Time) from KMPV Reporting Station
Light Snow Light Snow  
Wind Chill:   Ceiling: 1600
Heat Index: 19°   Visibility: 1.5mi
Dew Point: 15°   Wind: 12mph
Humidity: 85%   Direction: 320°NW
Pressure: 29.51"   Gusts: 29mph
Location:  44.2861°N, 72.6004°W
Report Text: KMPV 251213Z AUTO 32010G25KT 1 1/2SM -SN BR FEW009 OVC016 M07/M09 A2951 RMK AO2 PRESRR P0000 T10721094
Loading
Personal Weather Stations






























Interactive Weather Map New forecast layout! Learn more

10-Day Weather Forecast

Advertisements
Track Severe Weather on mobile